Terminal Aerodrome Forecast
Issued by NWS

Home | Current Version | Previous Version | Text Only | Print | Product List | Glossary On
Versions: 1 2 3 4 5 6 7 8 9 10 11 12 13 14 15 16 17 18
000
FTUS43 KILX 031736
TAFCMI
TAF
KCMI 031736Z 0318/0418 05008KT P6SM VCSH SCT030 BKN110
      TEMPO 0318/0321 BKN025
     FM032100 05007KT P6SM BKN035
     FM040100 03005KT P6SM SCT040
     FM040900 03003KT 4SM BR SCT250
     FM041500 VRB04KT P6SM FEW025 SCT250=

USA.gov is the U.S. government's official web portal to all federal, state and local government web resources and services.